sensor_id;sensor_type;location;lat;lon;timestamp;temperature;humidity
16907;DHT22;8570;52.380;4.654;2024-02-14T00:03:49;8.50;99.90
16907;DHT22;8570;52.380;4.654;2024-02-14T00:08:53;8.50;99.90
16907;DHT22;8570;52.380;4.654;2024-02-14T00:13:56;8.60;99.90
16907;DHT22;8570;52.380;4.654;2024-02-14T00:18:59;8.50;99.90
16907;DHT22;8570;52.380;4.654;2024-02-14T00:24:03;8.60;99.90
16907;DHT22;8570;52.380;4.654;2024-02-14T00:29:06;8.60;99.90
16907;DHT22;8570;52.380;4.654;2024-02-14T00:34:08;8.70;99.90
16907;DHT22;8570;52.380;4.654;2024-02-14T00:39:10;8.70;99.90
16907;DHT22;8570;52.380;4.654;2024-02-14T00:44:13;8.70;99.90
16907;DHT22;8570;52.380;4.654;2024-02-14T00:49:17;8.70;99.90
16907;DHT22;8570;52.380;4.654;2024-02-14T00:54:20;8.80;99.90
16907;DHT22;8570;52.380;4.654;2024-02-14T00:59:23;8.80;99.90
16907;DHT22;8570;52.380;4.654;2024-02-14T01:04:28;8.90;99.90
16907;DHT22;8570;52.380;4.654;2024-02-14T01:09:30;9.00;99.90
16907;DHT22;8570;52.380;4.654;2024-02-14T01:14:34;9.00;99.90
16907;DHT22;8570;52.380;4.654;2024-02-14T01:19:36;9.10;99.90
16907;DHT22;8570;52.380;4.654;2024-02-14T01:24:40;9.20;99.90
16907;DHT22;8570;52.380;4.654;2024-02-14T01:29:46;9.30;99.90
16907;DHT22;8570;52.380;4.654;2024-02-14T01:34:48;9.40;99.90
16907;DHT22;8570;52.380;4.654;2024-02-14T01:39:50;9.50;99.90
16907;DHT22;8570;52.380;4.654;2024-02-14T01:44:53;9.50;99.90
16907;DHT22;8570;52.380;4.654;2024-02-14T01:49:56;9.50;99.90
16907;DHT22;8570;52.380;4.654;2024-02-14T01:55:01;9.50;99.90
16907;DHT22;8570;52.380;4.654;2024-02-14T02:00:10;9.60;99.90
16907;DHT22;8570;52.380;4.654;2024-02-14T02:05:18;9.50;99.90
16907;DHT22;8570;52.380;4.654;2024-02-14T02:10:20;9.50;99.90
16907;DHT22;8570;52.380;4.654;2024-02-14T02:15:24;9.60;99.90
16907;DHT22;8570;52.380;4.654;2024-02-14T02:20:26;9.60;99.90
16907;DHT22;8570;52.380;4.654;2024-02-14T02:25:29;9.60;99.90
16907;DHT22;8570;52.380;4.654;2024-02-14T02:30:31;9.50;99.90
16907;DHT22;8570;52.380;4.654;2024-02-14T02:35:35;9.50;99.90
16907;DHT22;8570;52.380;4.654;2024-02-14T02:40:42;9.50;99.90
16907;DHT22;8570;52.380;4.654;2024-02-14T02:45:44;9.50;99.90
16907;DHT22;8570;52.380;4.654;2024-02-14T02:50:46;9.50;99.90
16907;DHT22;8570;52.380;4.654;2024-02-14T02:55:51;9.40;99.90
16907;DHT22;8570;52.380;4.654;2024-02-14T03:00:54;9.50;99.90
16907;DHT22;8570;52.380;4.654;2024-02-14T03:05:58;9.50;99.90
16907;DHT22;8570;52.380;4.654;2024-02-14T03:11:04;9.50;99.90
16907;DHT22;8570;52.380;4.654;2024-02-14T03:16:09;9.50;99.90
16907;DHT22;8570;52.380;4.654;2024-02-14T03:21:11;9.50;99.90
16907;DHT22;8570;52.380;4.654;2024-02-14T03:26:15;9.50;99.90
16907;DHT22;8570;52.380;4.654;2024-02-14T03:31:16;9.50;99.90
16907;DHT22;8570;52.380;4.654;2024-02-14T03:36:18;9.50;99.90
16907;DHT22;8570;52.380;4.654;2024-02-14T03:41:25;9.50;99.90
16907;DHT22;8570;52.380;4.654;2024-02-14T03:46:28;9.50;99.90
16907;DHT22;8570;52.380;4.654;2024-02-14T03:51:30;9.50;99.90
16907;DHT22;8570;52.380;4.654;2024-02-14T03:56:36;9.50;99.90
16907;DHT22;8570;52.380;4.654;2024-02-14T04:01:44;9.60;99.90
16907;DHT22;8570;52.380;4.654;2024-02-14T04:06:46;9.50;99.90
16907;DHT22;8570;52.380;4.654;2024-02-14T04:11:50;9.60;99.90
16907;DHT22;8570;52.380;4.654;2024-02-14T04:16:55;9.60;99.90
16907;DHT22;8570;52.380;4.654;2024-02-14T04:21:57;9.60;99.90
16907;DHT22;8570;52.380;4.654;2024-02-14T04:27:03;9.60;99.90
16907;DHT22;8570;52.380;4.654;2024-02-14T04:32:05;9.60;99.90
16907;DHT22;8570;52.380;4.654;2024-02-14T04:37:07;9.60;99.90
16907;DHT22;8570;52.380;4.654;2024-02-14T04:42:14;9.60;99.90
16907;DHT22;8570;52.380;4.654;2024-02-14T04:47:16;9.60;99.90
16907;DHT22;8570;52.380;4.654;2024-02-14T04:52:18;9.70;99.90
16907;DHT22;8570;52.380;4.654;2024-02-14T04:57:21;9.70;99.90
16907;DHT22;8570;52.380;4.654;2024-02-14T05:02:23;9.70;99.90
16907;DHT22;8570;52.380;4.654;2024-02-14T05:07:25;9.80;99.90
16907;DHT22;8570;52.380;4.654;2024-02-14T05:12:28;9.80;99.90
16907;DHT22;8570;52.380;4.654;2024-02-14T05:17:30;9.80;99.90
16907;DHT22;8570;52.380;4.654;2024-02-14T05:22:32;9.80;99.90
16907;DHT22;8570;52.380;4.654;2024-02-14T05:27:35;9.90;99.90
16907;DHT22;8570;52.380;4.654;2024-02-14T05:32:39;9.90;99.90
16907;DHT22;8570;52.380;4.654;2024-02-14T05:37:40;9.90;99.90
16907;DHT22;8570;52.380;4.654;2024-02-14T05:42:45;10.00;99.90
16907;DHT22;8570;52.380;4.654;2024-02-14T05:47:47;10.00;99.90
16907;DHT22;8570;52.380;4.654;2024-02-14T05:52:51;10.00;99.90
16907;DHT22;8570;52.380;4.654;2024-02-14T05:57:55;10.00;99.90
16907;DHT22;8570;52.380;4.654;2024-02-14T06:02:59;10.10;99.90
16907;DHT22;8570;52.380;4.654;2024-02-14T06:08:02;10.10;99.90
16907;DHT22;8570;52.380;4.654;2024-02-14T06:13:06;10.00;99.90
16907;DHT22;8570;52.380;4.654;2024-02-14T06:18:07;10.10;99.90
16907;DHT22;8570;52.380;4.654;2024-02-14T06:23:10;10.10;99.90
16907;DHT22;8570;52.380;4.654;2024-02-14T06:28:13;10.00;99.90
16907;DHT22;8570;52.380;4.654;2024-02-14T06:33:15;10.00;99.90
16907;DHT22;8570;52.380;4.654;2024-02-14T06:38:17;10.10;99.90
16907;DHT22;8570;52.380;4.654;2024-02-14T06:43:21;10.10;99.90
16907;DHT22;8570;52.380;4.654;2024-02-14T06:48:23;10.10;99.90
16907;DHT22;8570;52.380;4.654;2024-02-14T06:53:25;10.10;99.90
16907;DHT22;8570;52.380;4.654;2024-02-14T06:58:28;10.10;99.90
16907;DHT22;8570;52.380;4.654;2024-02-14T07:03:30;10.10;99.90
16907;DHT22;8570;52.380;4.654;2024-02-14T07:08:32;10.20;99.90
16907;DHT22;8570;52.380;4.654;2024-02-14T07:13:35;10.20;99.90
16907;DHT22;8570;52.380;4.654;2024-02-14T07:18:37;10.20;99.90
16907;DHT22;8570;52.380;4.654;2024-02-14T07:23:39;10.20;99.90
16907;DHT22;8570;52.380;4.654;2024-02-14T07:28:42;10.20;99.90
16907;DHT22;8570;52.380;4.654;2024-02-14T07:33:44;10.30;99.90
16907;DHT22;8570;52.380;4.654;2024-02-14T07:38:48;10.30;99.90
16907;DHT22;8570;52.380;4.654;2024-02-14T07:43:51;10.30;99.90
16907;DHT22;8570;52.380;4.654;2024-02-14T07:48:53;10.30;99.90
16907;DHT22;8570;52.380;4.654;2024-02-14T07:53:55;10.40;99.90
16907;DHT22;8570;52.380;4.654;2024-02-14T07:58:58;10.40;99.90
16907;DHT22;8570;52.380;4.654;2024-02-14T08:04:00;10.40;99.90
16907;DHT22;8570;52.380;4.654;2024-02-14T08:09:02;10.50;99.90
16907;DHT22;8570;52.380;4.654;2024-02-14T08:14:08;10.50;99.90
16907;DHT22;8570;52.380;4.654;2024-02-14T08:19:10;10.50;99.90
16907;DHT22;8570;52.380;4.654;2024-02-14T08:24:18;10.50;99.90
16907;DHT22;8570;52.380;4.654;2024-02-14T08:29:21;10.60;99.90
16907;DHT22;8570;52.380;4.654;2024-02-14T08:34:23;10.60;99.90
16907;DHT22;8570;52.380;4.654;2024-02-14T08:39:25;10.60;99.90
16907;DHT22;8570;52.380;4.654;2024-02-14T08:44:28;10.60;99.90
16907;DHT22;8570;52.380;4.654;2024-02-14T08:49:30;10.60;99.90
16907;DHT22;8570;52.380;4.654;2024-02-14T08:54:32;10.60;99.90
16907;DHT22;8570;52.380;4.654;2024-02-14T08:59:35;10.60;99.90
16907;DHT22;8570;52.380;4.654;2024-02-14T09:04:37;10.60;99.90
16907;DHT22;8570;52.380;4.654;2024-02-14T09:09:42;10.70;99.90
16907;DHT22;8570;52.380;4.654;2024-02-14T09:14:46;10.70;99.90
16907;DHT22;8570;52.380;4.654;2024-02-14T09:19:48;10.70;99.90
16907;DHT22;8570;52.380;4.654;2024-02-14T09:24:51;10.80;99.90
16907;DHT22;8570;52.380;4.654;2024-02-14T09:29:54;10.80;99.90
16907;DHT22;8570;52.380;4.654;2024-02-14T09:34:57;10.90;99.90
16907;DHT22;8570;52.380;4.654;2024-02-14T09:39:58;10.90;99.90
16907;DHT22;8570;52.380;4.654;2024-02-14T09:45:02;10.90;99.90
16907;DHT22;8570;52.380;4.654;2024-02-14T09:50:06;10.90;99.90
16907;DHT22;8570;52.380;4.654;2024-02-14T09:55:09;11.00;99.90
16907;DHT22;8570;52.380;4.654;2024-02-14T10:00:14;11.00;99.90
16907;DHT22;8570;52.380;4.654;2024-02-14T10:05:16;11.00;99.90
16907;DHT22;8570;52.380;4.654;2024-02-14T10:10:18;11.00;99.90
16907;DHT22;8570;52.380;4.654;2024-02-14T10:15:21;11.10;99.90
16907;DHT22;8570;52.380;4.654;2024-02-14T10:20:23;11.10;99.90
16907;DHT22;8570;52.380;4.654;2024-02-14T10:25:26;11.20;99.90
16907;DHT22;8570;52.380;4.654;2024-02-14T10:30:30;11.20;99.90
16907;DHT22;8570;52.380;4.654;2024-02-14T10:35:35;11.20;99.90
16907;DHT22;8570;52.380;4.654;2024-02-14T10:40:38;11.30;99.90
16907;DHT22;8570;52.380;4.654;2024-02-14T10:45:41;11.40;99.90
16907;DHT22;8570;52.380;4.654;2024-02-14T10:50:44;11.40;99.90
16907;DHT22;8570;52.380;4.654;2024-02-14T10:55:49;11.50;99.90
16907;DHT22;8570;52.380;4.654;2024-02-14T11:00:53;11.50;99.90
16907;DHT22;8570;52.380;4.654;2024-02-14T11:05:55;11.60;99.90
16907;DHT22;8570;52.380;4.654;2024-02-14T11:11:01;11.60;99.90
16907;DHT22;8570;52.380;4.654;2024-02-14T11:16:08;11.70;99.90
16907;DHT22;8570;52.380;4.654;2024-02-14T11:21:16;11.70;99.90
16907;DHT22;8570;52.380;4.654;2024-02-14T11:26:20;11.70;99.90
16907;DHT22;8570;52.380;4.654;2024-02-14T11:31:32;11.60;99.90
16907;DHT22;8570;52.380;4.654;2024-02-14T11:36:35;11.60;99.90
16907;DHT22;8570;52.380;4.654;2024-02-14T11:41:38;11.60;99.90
16907;DHT22;8570;52.380;4.654;2024-02-14T11:46:42;11.60;99.90
16907;DHT22;8570;52.380;4.654;2024-02-14T11:51:43;11.50;99.90
16907;DHT22;8570;52.380;4.654;2024-02-14T11:56:46;11.60;99.90
16907;DHT22;8570;52.380;4.654;2024-02-14T12:01:50;11.60;99.90
16907;DHT22;8570;52.380;4.654;2024-02-14T12:06:53;11.60;99.90
16907;DHT22;8570;52.380;4.654;2024-02-14T12:11:57;11.60;99.90
16907;DHT22;8570;52.380;4.654;2024-02-14T12:17:01;11.60;99.90
16907;DHT22;8570;52.380;4.654;2024-02-14T12:22:09;11.60;99.90
16907;DHT22;8570;52.380;4.654;2024-02-14T12:27:12;11.70;99.90
16907;DHT22;8570;52.380;4.654;2024-02-14T12:32:17;11.70;99.90
16907;DHT22;8570;52.380;4.654;2024-02-14T12:37:19;11.70;99.90
16907;DHT22;8570;52.380;4.654;2024-02-14T12:42:21;11.70;99.90
16907;DHT22;8570;52.380;4.654;2024-02-14T12:47:27;11.70;99.90
16907;DHT22;8570;52.380;4.654;2024-02-14T12:52:32;11.70;99.90
16907;DHT22;8570;52.380;4.654;2024-02-14T12:57:35;11.70;99.90
16907;DHT22;8570;52.380;4.654;2024-02-14T13:02:38;11.70;99.90
16907;DHT22;8570;52.380;4.654;2024-02-14T13:07:40;11.70;99.90
16907;DHT22;8570;52.380;4.654;2024-02-14T13:12:42;11.70;99.90
16907;DHT22;8570;52.380;4.654;2024-02-14T13:17:47;11.70;99.90
16907;DHT22;8570;52.380;4.654;2024-02-14T13:22:49;11.60;99.90
16907;DHT22;8570;52.380;4.654;2024-02-14T13:27:51;11.60;99.90
16907;DHT22;8570;52.380;4.654;2024-02-14T13:32:54;11.50;99.90
16907;DHT22;8570;52.380;4.654;2024-02-14T13:37:56;11.40;99.90
16907;DHT22;8570;52.380;4.654;2024-02-14T13:42:58;11.40;99.90
16907;DHT22;8570;52.380;4.654;2024-02-14T13:48:04;11.40;99.90
16907;DHT22;8570;52.380;4.654;2024-02-14T13:53:06;11.40;99.90
16907;DHT22;8570;52.380;4.654;2024-02-14T13:58:08;11.30;99.90
16907;DHT22;8570;52.380;4.654;2024-02-14T14:03:16;11.30;99.90
16907;DHT22;8570;52.380;4.654;2024-02-14T14:08:18;11.20;99.90
16907;DHT22;8570;52.380;4.654;2024-02-14T14:13:19;11.20;99.90
16907;DHT22;8570;52.380;4.654;2024-02-14T14:18:23;11.20;99.90
16907;DHT22;8570;52.380;4.654;2024-02-14T14:23:28;11.20;99.90
16907;DHT22;8570;52.380;4.654;2024-02-14T14:28:29;11.20;99.90
16907;DHT22;8570;52.380;4.654;2024-02-14T14:33:34;11.10;99.90
16907;DHT22;8570;52.380;4.654;2024-02-14T14:38:35;11.10;99.90
16907;DHT22;8570;52.380;4.654;2024-02-14T14:43:38;11.00;99.90
16907;DHT22;8570;52.380;4.654;2024-02-14T14:48:42;11.00;99.90
16907;DHT22;8570;52.380;4.654;2024-02-14T14:53:44;11.00;99.90
16907;DHT22;8570;52.380;4.654;2024-02-14T14:58:46;11.00;99.90
16907;DHT22;8570;52.380;4.654;2024-02-14T15:03:49;11.00;99.90
16907;DHT22;8570;52.380;4.654;2024-02-14T15:08:53;11.00;99.90
16907;DHT22;8570;52.380;4.654;2024-02-14T15:13:55;11.00;99.90
16907;DHT22;8570;52.380;4.654;2024-02-14T15:18:58;10.90;99.90
16907;DHT22;8570;52.380;4.654;2024-02-14T15:24:00;10.90;99.90
16907;DHT22;8570;52.380;4.654;2024-02-14T15:29:01;10.90;99.90
16907;DHT22;8570;52.380;4.654;2024-02-14T15:34:22;10.90;99.90
16907;DHT22;8570;52.380;4.654;2024-02-14T15:39:23;10.90;99.90
16907;DHT22;8570;52.380;4.654;2024-02-14T15:44:25;10.90;99.90
16907;DHT22;8570;52.380;4.654;2024-02-14T15:49:29;10.90;99.90
16907;DHT22;8570;52.380;4.654;2024-02-14T15:54:30;10.90;99.90
16907;DHT22;8570;52.380;4.654;2024-02-14T15:59:32;10.80;99.90
16907;DHT22;8570;52.380;4.654;2024-02-14T16:04:35;10.80;99.90
16907;DHT22;8570;52.380;4.654;2024-02-14T16:09:37;10.80;99.90
16907;DHT22;8570;52.380;4.654;2024-02-14T16:14:42;10.90;99.90
16907;DHT22;8570;52.380;4.654;2024-02-14T16:19:45;11.00;99.90
16907;DHT22;8570;52.380;4.654;2024-02-14T16:24:47;10.90;99.90
16907;DHT22;8570;52.380;4.654;2024-02-14T16:29:49;10.80;99.90
16907;DHT22;8570;52.380;4.654;2024-02-14T16:34:52;10.80;99.90
16907;DHT22;8570;52.380;4.654;2024-02-14T16:39:54;10.70;99.90
16907;DHT22;8570;52.380;4.654;2024-02-14T16:44:56;10.70;99.90
16907;DHT22;8570;52.380;4.654;2024-02-14T16:49:59;10.70;99.90
16907;DHT22;8570;52.380;4.654;2024-02-14T16:55:01;10.60;99.90
16907;DHT22;8570;52.380;4.654;2024-02-14T17:00:04;10.60;99.90
16907;DHT22;8570;52.380;4.654;2024-02-14T17:05:08;10.60;99.90
16907;DHT22;8570;52.380;4.654;2024-02-14T17:10:10;10.50;99.90
16907;DHT22;8570;52.380;4.654;2024-02-14T17:15:12;10.50;99.90
16907;DHT22;8570;52.380;4.654;2024-02-14T17:20:15;10.50;99.90
16907;DHT22;8570;52.380;4.654;2024-02-14T17:25:19;10.50;99.90
16907;DHT22;8570;52.380;4.654;2024-02-14T17:30:21;10.50;99.90
16907;DHT22;8570;52.380;4.654;2024-02-14T17:35:24;10.50;99.90
16907;DHT22;8570;52.380;4.654;2024-02-14T17:40:26;10.50;99.90
16907;DHT22;8570;52.380;4.654;2024-02-14T17:45:29;10.60;99.90
16907;DHT22;8570;52.380;4.654;2024-02-14T17:50:32;10.60;99.90
16907;DHT22;8570;52.380;4.654;2024-02-14T17:55:34;10.80;99.90
16907;DHT22;8570;52.380;4.654;2024-02-14T18:00:35;10.90;99.90
16907;DHT22;8570;52.380;4.654;2024-02-14T18:05:40;10.80;99.90
16907;DHT22;8570;52.380;4.654;2024-02-14T18:10:42;10.70;99.90
16907;DHT22;8570;52.380;4.654;2024-02-14T18:15:46;10.60;99.90
16907;DHT22;8570;52.380;4.654;2024-02-14T18:20:51;10.60;99.90
16907;DHT22;8570;52.380;4.654;2024-02-14T18:25:53;10.50;99.90
16907;DHT22;8570;52.380;4.654;2024-02-14T18:30:54;10.50;99.90
16907;DHT22;8570;52.380;4.654;2024-02-14T18:35:58;10.50;99.90
16907;DHT22;8570;52.380;4.654;2024-02-14T18:41:04;10.50;99.90
16907;DHT22;8570;52.380;4.654;2024-02-14T18:46:09;10.50;99.90
16907;DHT22;8570;52.380;4.654;2024-02-14T18:51:13;10.50;99.90
16907;DHT22;8570;52.380;4.654;2024-02-14T18:56:16;10.50;99.90
16907;DHT22;8570;52.380;4.654;2024-02-14T19:01:21;10.50;99.90
16907;DHT22;8570;52.380;4.654;2024-02-14T19:06:25;10.50;99.90
16907;DHT22;8570;52.380;4.654;2024-02-14T19:11:27;10.60;99.90
16907;DHT22;8570;52.380;4.654;2024-02-14T19:16:29;10.60;99.90
16907;DHT22;8570;52.380;4.654;2024-02-14T19:21:32;10.50;99.90
16907;DHT22;8570;52.380;4.654;2024-02-14T19:26:34;10.60;99.90
16907;DHT22;8570;52.380;4.654;2024-02-14T19:31:36;10.60;99.90
16907;DHT22;8570;52.380;4.654;2024-02-14T19:36:39;10.60;99.90
16907;DHT22;8570;52.380;4.654;2024-02-14T19:41:41;10.60;99.90
16907;DHT22;8570;52.380;4.654;2024-02-14T19:46:43;10.60;99.90
16907;DHT22;8570;52.380;4.654;2024-02-14T19:51:47;10.60;99.90
16907;DHT22;8570;52.380;4.654;2024-02-14T19:56:48;10.60;99.90
16907;DHT22;8570;52.380;4.654;2024-02-14T20:02:03;10.60;99.90
16907;DHT22;8570;52.380;4.654;2024-02-14T20:07:20;10.60;99.90
16907;DHT22;8570;52.380;4.654;2024-02-14T20:12:27;10.60;99.90
16907;DHT22;8570;52.380;4.654;2024-02-14T20:17:35;10.60;99.90
16907;DHT22;8570;52.380;4.654;2024-02-14T20:22:45;10.60;99.90
16907;DHT22;8570;52.380;4.654;2024-02-14T20:27:47;10.70;99.90
16907;DHT22;8570;52.380;4.654;2024-02-14T20:32:53;10.70;99.90
16907;DHT22;8570;52.380;4.654;2024-02-14T20:37:56;10.70;99.90
16907;DHT22;8570;52.380;4.654;2024-02-14T20:42:59;10.70;99.90
16907;DHT22;8570;52.380;4.654;2024-02-14T20:48:07;10.70;99.90
16907;DHT22;8570;52.380;4.654;2024-02-14T20:53:13;10.80;99.90
16907;DHT22;8570;52.380;4.654;2024-02-14T20:58:35;10.80;99.90
16907;DHT22;8570;52.380;4.654;2024-02-14T21:03:51;10.80;99.90
16907;DHT22;8570;52.380;4.654;2024-02-14T21:08:54;10.80;99.90
16907;DHT22;8570;52.380;4.654;2024-02-14T21:13:56;10.80;99.90
16907;DHT22;8570;52.380;4.654;2024-02-14T21:18:59;10.80;99.90
16907;DHT22;8570;52.380;4.654;2024-02-14T21:24:05;10.80;99.90
16907;DHT22;8570;52.380;4.654;2024-02-14T21:29:07;10.80;99.90
16907;DHT22;8570;52.380;4.654;2024-02-14T21:34:11;10.80;99.90
16907;DHT22;8570;52.380;4.654;2024-02-14T21:39:30;10.80;99.90
16907;DHT22;8570;52.380;4.654;2024-02-14T21:44:32;10.80;99.90
16907;DHT22;8570;52.380;4.654;2024-02-14T21:49:39;10.90;99.90
16907;DHT22;8570;52.380;4.654;2024-02-14T21:55:02;10.90;99.90
16907;DHT22;8570;52.380;4.654;2024-02-14T22:00:05;10.90;99.90
16907;DHT22;8570;52.380;4.654;2024-02-14T22:05:12;10.90;99.90
16907;DHT22;8570;52.380;4.654;2024-02-14T22:10:16;10.90;99.90
16907;DHT22;8570;52.380;4.654;2024-02-14T22:15:18;10.90;99.90
16907;DHT22;8570;52.380;4.654;2024-02-14T22:20:20;10.90;99.90
16907;DHT22;8570;52.380;4.654;2024-02-14T22:25:24;10.90;99.90
16907;DHT22;8570;52.380;4.654;2024-02-14T22:30:26;10.90;99.90
16907;DHT22;8570;52.380;4.654;2024-02-14T22:35:28;10.90;99.90
16907;DHT22;8570;52.380;4.654;2024-02-14T22:40:33;10.90;99.90
16907;DHT22;8570;52.380;4.654;2024-02-14T22:45:35;10.90;99.90
16907;DHT22;8570;52.380;4.654;2024-02-14T22:50:40;10.90;99.90
16907;DHT22;8570;52.380;4.654;2024-02-14T22:55:49;10.90;99.90
16907;DHT22;8570;52.380;4.654;2024-02-14T23:00:58;11.00;99.90
16907;DHT22;8570;52.380;4.654;2024-02-14T23:06:12;11.00;99.90
16907;DHT22;8570;52.380;4.654;2024-02-14T23:11:20;11.00;99.90
16907;DHT22;8570;52.380;4.654;2024-02-14T23:16:24;11.00;99.90
16907;DHT22;8570;52.380;4.654;2024-02-14T23:21:26;11.10;99.90
16907;DHT22;8570;52.380;4.654;2024-02-14T23:26:32;11.10;99.90
16907;DHT22;8570;52.380;4.654;2024-02-14T23:31:34;11.10;99.90
16907;DHT22;8570;52.380;4.654;2024-02-14T23:36:36;11.20;99.90
16907;DHT22;8570;52.380;4.654;2024-02-14T23:41:41;11.20;99.90
16907;DHT22;8570;52.380;4.654;2024-02-14T23:46:43;11.20;99.90
16907;DHT22;8570;52.380;4.654;2024-02-14T23:51:47;11.30;99.90
16907;DHT22;8570;52.380;4.654;2024-02-14T23:56:50;11.30;99.90
